Time;durP1;ratioP1;P1;durP2;ratioP2;P2;SDS_P1;SDS_P2;PMS_P1;PMS_P2;Temp;Humidity;BMP_temperature;BMP_pressure;BME280_temperature;BME280_humidity;BME280_pressure;Samples;Min_cycle;Max_cycle;Signal;HPM_P1;HPM_P2
2022/01/12 00:02:20;;;;;;;;;68.00;51.00;;;;;2.22;96.46;102724.31;5061122;28;45524;-61
2022/01/12 00:04:46;;;;;;;;;68.50;50.00;;;;;2.18;95.75;102717.25;5058740;28;45229;-62
2022/01/12 00:07:12;;;;;;;;;64.75;46.25;;;;;2.29;95.78;102722.78;5057081;28;45250;-61
2022/01/12 00:09:38;;;;;;;;;72.25;51.25;;;;;2.26;96.07;102722.69;5057243;28;45853;-62
2022/01/12 00:12:04;;;;;;;;;71.00;54.00;;;;;2.22;95.47;102716.53;5058585;28;45426;-61
2022/01/12 00:14:29;;;;;;;;;70.50;49.75;;;;;2.24;95.41;102719.19;5057416;28;45232;-60
2022/01/12 00:16:59;;;;;;;;;65.00;50.50;;;;;2.24;95.51;102716.56;5057168;28;47327;-62
2022/01/12 00:19:26;;;;;;;;;68.00;51.50;;;;;2.22;95.02;102720.84;5057149;28;45391;-62
2022/01/12 00:21:52;;;;;;;;;72.50;51.25;;;;;2.19;95.47;102717.31;5057081;28;45353;-62
2022/01/12 00:24:18;;;;;;;;;63.50;47.25;;;;;2.17;95.44;102719.00;5057964;28;45638;-62
2022/01/12 00:33:08;;;;;;;;;64.00;47.75;;;;;2.18;96.05;102718.16;5058426;28;46248;-62
2022/01/12 00:34:56;;;;;;;;;59.25;47.00;;;;;2.20;96.50;102738.97;5057789;28;45338;-61
2022/01/12 00:37:21;;;;;;;;;65.50;49.50;;;;;2.20;95.52;102738.97;5057112;28;46179;-62
2022/01/12 00:39:47;;;;;;;;;69.00;51.50;;;;;2.25;95.64;102739.97;5057360;28;45348;-62
2022/01/12 00:42:13;;;;;;;;;71.00;50.25;;;;;2.26;95.75;102733.94;5057008;28;45226;-62
2022/01/12 00:44:44;;;;;;;;;72.50;51.75;;;;;2.24;95.66;102735.63;5057163;28;45245;-62
2022/01/12 00:47:10;;;;;;;;;70.75;52.50;;;;;2.18;94.97;102731.16;5056898;28;45448;-62
2022/01/12 00:49:36;;;;;;;;;75.50;54.00;;;;;2.20;96.27;102731.19;5057548;28;45381;-61
2022/01/12 00:52:02;;;;;;;;;74.00;53.75;;;;;2.17;95.18;102739.78;5057016;28;45339;-61
2022/01/12 00:54:27;;;;;;;;;65.00;50.50;;;;;2.14;95.80;102744.88;5057744;28;45332;-61
2022/01/12 00:56:53;;;;;;;;;75.00;53.75;;;;;2.11;96.28;102747.34;5057786;28;46141;-62
2022/01/12 00:59:19;;;;;;;;;76.75;53.00;;;;;2.08;95.44;102756.78;5040385;28;45356;-61
2022/01/12 01:01:44;;;;;;;;;79.00;59.00;;;;;2.09;96.00;102756.81;5059034;28;45292;-61
2022/01/12 01:04:09;;;;;;;;;77.25;53.75;;;;;2.08;95.39;102759.38;5057387;28;45335;-60
2022/01/12 01:06:36;;;;;;;;;72.75;53.50;;;;;2.08;96.18;102765.44;5056846;28;45209;-61
2022/01/12 01:09:02;;;;;;;;;77.50;57.00;;;;;2.03;96.06;102774.78;5055351;28;45371;-60
2022/01/12 01:11:28;;;;;;;;;77.00;55.25;;;;;1.99;96.30;102780.72;5057321;28;45296;-61
2022/01/12 01:16:45;;;;;;;;;64.25;46.75;;;;;1.96;95.98;102775.44;5056942;28;45339;-62
2022/01/12 01:27:25;;;;;;;;;69.75;52.25;;;;;1.92;95.45;102773.59;5055890;28;45689;-62
2022/01/12 01:29:53;;;;;;;;;70.50;50.75;;;;;2.01;95.99;102805.03;5056442;28;45315;-62
2022/01/12 01:32:18;;;;;;;;;62.25;47.50;;;;;2.02;95.29;102807.69;5056802;28;45356;-63
2022/01/12 01:34:47;;;;;;;;;72.50;50.50;;;;;1.94;94.32;102803.97;5056937;28;45456;-62
2022/01/12 01:37:13;;;;;;;;;67.25;50.25;;;;;1.86;95.95;102814.09;5061484;28;45302;-61
2022/01/12 01:39:39;;;;;;;;;69.00;50.00;;;;;1.76;96.05;102809.44;5056879;28;45257;-62
2022/01/12 01:42:13;;;;;;;;;65.50;49.25;;;;;1.74;96.46;102816.28;5055909;28;45399;-62
2022/01/12 01:55:19;;;;;;;;;64.00;47.50;;;;;1.73;96.87;102818.03;5056062;28;45276;-60
2022/01/12 01:57:45;;;;;;;;;68.00;49.00;;;;;1.73;96.84;102825.81;5055404;28;46200;-61
2022/01/12 02:00:14;;;;;;;;;62.75;48.00;;;;;1.73;96.92;102814.53;5055467;28;45400;-62
2022/01/12 02:02:40;;;;;;;;;68.25;51.25;;;;;1.71;96.66;102816.19;5055800;28;45494;-60
2022/01/12 02:05:06;;;;;;;;;71.50;48.75;;;;;1.70;97.70;102819.63;5055813;28;45440;-62
2022/01/12 02:07:33;;;;;;;;;60.50;46.75;;;;;1.72;97.23;102818.84;5055676;28;46412;-62
2022/01/12 02:09:59;;;;;;;;;61.00;49.00;;;;;1.73;97.05;102814.53;5055947;28;45324;-63
2022/01/12 02:12:27;;;;;;;;;64.25;47.00;;;;;1.64;97.10;102806.44;5056194;28;45256;-60
2022/01/12 02:14:53;;;;;;;;;68.75;47.00;;;;;1.64;96.94;102815.13;5060016;28;45306;-61
2022/01/12 02:17:23;;;;;;;;;71.25;52.00;;;;;1.62;97.09;102811.59;5059373;28;46208;-61
2022/01/12 02:36:25;;;;;;;;;69.00;50.00;;;;;1.71;97.63;102800.63;5058865;28;45344;-61
2022/01/12 02:41:37;;;;;;;;;59.75;43.75;;;;;1.80;97.39;102798.31;5058926;28;45788;-62
2022/01/12 02:54:49;;;;;;;;;60.25;47.00;;;;;1.96;97.70;102757.28;5058348;28;45392;-61
2022/01/12 02:57:15;;;;;;;;;68.75;50.75;;;;;1.95;97.82;102752.91;5060109;28;45384;-62
2022/01/12 03:05:21;;;;;;;;;62.75;47.25;;;;;2.07;97.80;102763.66;5059880;28;45368;-62
2022/01/12 03:07:45;;;;;;;;;65.75;47.75;;;;;2.11;97.19;102770.72;5058780;28;45260;-61
2022/01/12 03:10:11;;;;;;;;;64.00;47.00;;;;;2.12;96.73;102774.22;5064844;28;45328;-62
2022/01/12 03:12:38;;;;;;;;;61.25;44.50;;;;;2.15;96.84;102777.78;5058448;28;45241;-62
2022/01/12 03:15:05;;;;;;;;;64.50;48.75;;;;;2.15;96.97;102798.56;5058602;28;45474;-62
2022/01/12 03:17:30;;;;;;;;;61.50;47.50;;;;;2.14;96.32;102802.00;5059876;28;45489;-60
2022/01/12 03:19:55;;;;;;;;;63.00;44.50;;;;;2.12;96.56;102803.66;5060972;28;45431;-61
2022/01/12 03:22:21;;;;;;;;;60.00;43.00;;;;;2.11;96.97;102814.00;5058724;28;45355;-62
2022/01/12 03:24:46;;;;;;;;;61.25;45.25;;;;;2.11;96.36;102809.66;5058210;28;45442;-62
2022/01/12 03:27:14;;;;;;;;;58.50;45.75;;;;;2.14;97.19;102807.19;5058200;28;45346;-62
2022/01/12 03:29:44;;;;;;;;;55.75;42.50;;;;;2.15;96.57;102800.28;5057788;28;45765;-61
2022/01/12 03:32:13;;;;;;;;;55.75;45.50;;;;;2.18;96.69;102805.56;5058242;28;45248;-62
2022/01/12 03:34:42;;;;;;;;;63.50;46.50;;;;;2.16;96.17;102802.03;5040335;28;45437;-61
2022/01/12 03:39:43;;;;;;;;;62.75;45.75;;;;;2.14;96.62;102812.38;5057717;28;45481;-62
2022/01/12 03:42:08;;;;;;;;;49.25;42.00;;;;;2.18;96.95;102809.06;5060770;28;45243;-62
2022/01/12 03:44:34;;;;;;;;;61.00;42.75;;;;;2.22;96.51;102816.94;5062196;28;45292;-62
2022/01/12 03:46:59;;;;;;;;;64.00;47.25;;;;;2.21;97.06;102813.44;5061323;28;45215;-62
2022/01/12 03:49:24;;;;;;;;;58.50;44.75;;;;;2.17;96.27;102798.59;5058435;28;45315;-64
2022/01/12 03:51:50;;;;;;;;;57.25;45.50;;;;;2.21;97.25;102802.19;5056924;28;45358;-62
2022/01/12 03:54:16;;;;;;;;;49.50;41.50;;;;;2.22;96.80;102812.59;5057919;28;45417;-64
2022/01/12 03:56:42;;;;;;;;;58.50;45.25;;;;;2.22;96.14;102814.34;5060154;28;45406;-62
2022/01/12 03:59:07;;;;;;;;;60.00;45.75;;;;;2.22;97.04;102820.41;5058226;28;45567;-62
2022/01/12 04:01:35;;;;;;;;;52.50;40.75;;;;;2.25;95.74;102832.59;5039059;28;45526;-61
2022/01/12 04:04:06;;;;;;;;;45.75;38.25;;;;;2.26;95.85;102839.56;5057673;28;45407;-61
2022/01/12 04:09:17;;;;;;;;;53.25;40.00;;;;;2.28;96.27;102836.16;5057624;28;45481;-61
2022/01/12 04:11:42;;;;;;;;;60.00;47.00;;;;;2.30;95.91;102850.06;5057607;28;45530;-62
2022/01/12 04:14:08;;;;;;;;;64.00;46.00;;;;;2.27;95.45;102852.56;5058459;28;45382;-61
2022/01/12 04:16:35;;;;;;;;;49.25;40.75;;;;;2.26;95.96;102853.41;5059072;28;45435;-63
2022/01/12 04:19:00;;;;;;;;;63.50;44.50;;;;;2.19;95.53;102867.03;5058665;28;45328;-60
2022/01/12 04:21:30;;;;;;;;;52.75;40.75;;;;;2.11;95.94;102860.72;5057341;28;45327;-60
2022/01/12 04:23:57;;;;;;;;;54.75;43.25;;;;;1.97;95.92;102866.34;5057431;28;45287;-62
2022/01/12 04:26:24;;;;;;;;;67.50;47.00;;;;;1.99;95.98;102866.41;5058085;28;45362;-62
2022/01/12 04:28:50;;;;;;;;;58.75;45.25;;;;;1.95;96.96;102854.16;5057343;28;47235;-62
2022/01/12 04:31:15;;;;;;;;;58.75;44.00;;;;;2.02;96.75;102869.97;5061140;28;45260;-61
2022/01/12 04:33:42;;;;;;;;;57.50;43.00;;;;;2.01;96.38;102880.31;5063355;28;45325;-61
2022/01/12 04:36:09;;;;;;;;;53.75;40.25;;;;;1.94;95.99;102876.66;5062323;28;45335;-61
2022/01/12 04:38:37;;;;;;;;;61.00;45.25;;;;;1.86;96.99;102884.16;5057930;28;45304;-60
2022/01/12 04:41:05;;;;;;;;;57.75;42.25;;;;;1.83;96.19;102883.19;5057794;28;45490;-63
2022/01/12 04:43:32;;;;;;;;;64.25;45.25;;;;;1.80;96.87;102881.38;5059432;28;45244;-61
2022/01/12 04:46:20;;;;;;;;;60.75;46.00;;;;;1.89;97.02;102897.25;5057812;28;45431;-61
2022/01/12 04:51:15;;;;;;;;;62.00;46.75;;;;;1.94;97.68;102891.31;5058422;28;45355;-62
2022/01/12 04:53:40;;;;;;;;;59.75;43.50;;;;;1.92;97.03;102888.69;5062093;28;45375;-62
2022/01/12 04:56:06;;;;;;;;;60.25;45.50;;;;;1.92;97.25;102892.97;5060455;28;45455;-61
2022/01/12 04:58:32;;;;;;;;;61.75;46.00;;;;;1.80;97.10;102870.97;5056867;28;46154;-61
2022/01/12 05:01:05;;;;;;;;;61.75;44.25;;;;;1.82;96.91;102884.03;5056352;28;45319;-62
2022/01/12 05:14:13;;;;;;;;;66.50;43.25;;;;;1.61;96.94;102908.41;5057641;28;45264;-62
2022/01/12 05:16:39;;;;;;;;;67.00;45.00;;;;;1.57;97.27;102909.09;5061733;28;45263;-61
2022/01/12 05:19:05;;;;;;;;;65.00;44.50;;;;;1.58;98.04;102905.69;5046865;28;48058;-62
2022/01/12 05:21:31;;;;;;;;;59.00;42.00;;;;;1.59;98.28;102902.25;5066500;28;45399;-61
2022/01/12 05:23:59;;;;;;;;;61.00;44.50;;;;;1.65;97.96;102904.19;5060444;28;45359;-62
2022/01/12 05:26:24;;;;;;;;;62.00;43.00;;;;;1.55;97.23;102897.78;5057562;28;45427;-61
2022/01/12 05:28:49;;;;;;;;;58.50;44.75;;;;;1.49;96.92;102890.72;5057130;28;46885;-62
2022/01/12 05:31:15;;;;;;;;;62.50;44.50;;;;;1.43;97.52;102880.13;5057874;28;45359;-62
2022/01/12 05:33:46;;;;;;;;;56.75;43.75;;;;;1.45;98.01;102883.66;5056005;28;45186;-62
2022/01/12 05:36:12;;;;;;;;;59.25;42.75;;;;;1.48;98.20;102882.84;5055870;28;45369;-63
2022/01/12 05:38:37;;;;;;;;;61.75;45.50;;;;;1.48;98.04;102880.25;5055513;28;45329;-60
2022/01/12 05:41:05;;;;;;;;;58.75;44.00;;;;;1.52;97.84;102887.31;5055952;28;45747;-62
2022/01/12 05:43:32;;;;;;;;;62.50;46.25;;;;;1.53;98.59;102889.97;5056456;28;45328;-62
2022/01/12 05:46:08;;;;;;;;;58.25;38.75;;;;;1.58;98.67;102891.03;5056212;28;45301;-61
2022/01/12 05:51:18;;;;;;;;;58.75;45.25;;;;;1.60;98.09;102867.75;5055655;28;45404;-61
2022/01/12 05:53:43;;;;;;;;;58.00;39.25;;;;;1.55;98.54;102864.97;5055781;28;45332;-61
2022/01/12 05:56:08;;;;;;;;;61.50;42.00;;;;;1.67;97.97;102890.47;5055779;28;45395;-61
2022/01/12 05:58:34;;;;;;;;;59.50;43.50;;;;;1.68;98.17;102887.03;5055799;28;45332;-60
2022/01/12 06:01:00;;;;;;;;;61.75;47.75;;;;;1.64;98.34;102892.97;5055896;28;45237;-61
2022/01/12 06:03:26;;;;;;;;;59.50;44.50;;;;;1.68;97.70;102900.00;5056378;28;45332;-63
2022/01/12 06:05:52;;;;;;;;;62.25;43.25;;;;;1.70;97.91;102900.94;5056423;28;45350;-61
2022/01/12 06:08:18;;;;;;;;;45.25;34.25;;;;;1.69;98.14;102908.66;5055686;28;46083;-61
2022/01/12 06:10:43;;;;;;;;;60.00;42.50;;;;;1.72;98.05;102906.19;5037678;28;45640;-61
2022/01/12 06:13:08;;;;;;;;;53.25;38.50;;;;;1.77;97.50;102896.84;5038109;28;45303;-61
2022/01/12 06:15:34;;;;;;;;;59.00;42.00;;;;;1.80;98.14;102898.66;5038721;28;45552;-62
2022/01/12 06:17:59;;;;;;;;;65.50;47.25;;;;;1.85;97.52;102903.16;5059946;28;46939;-61
2022/01/12 06:20:24;;;;;;;;;58.25;42.25;;;;;1.87;97.95;102895.44;5055489;28;45495;-61
2022/01/12 06:22:50;;;;;;;;;61.75;43.00;;;;;1.87;97.86;102896.31;5055526;28;45418;-63
2022/01/12 06:25:16;;;;;;;;;55.25;41.00;;;;;1.89;97.19;102898.97;5037639;28;45566;-62
2022/01/12 06:27:56;;;;;;;;;63.00;46.75;;;;;1.90;97.80;102898.13;5055026;28;47065;-62
2022/01/12 06:32:55;;;;;;;;;59.25;43.00;;;;;1.92;97.29;102896.47;5055611;28;45174;-61
2022/01/12 06:35:21;;;;;;;;;60.00;41.00;;;;;1.92;97.13;102903.38;5055669;28;45216;-60
2022/01/12 06:37:46;;;;;;;;;62.50;45.75;;;;;1.90;97.24;102901.59;5055492;28;47054;-60
2022/01/12 06:40:13;;;;;;;;;60.00;44.00;;;;;1.85;97.71;102903.16;5037100;28;45344;-61
2022/01/12 06:42:39;;;;;;;;;22.25;11.75;;;;;1.85;97.70;102895.38;5056017;28;45430;-62
2022/01/12 06:45:05;;;;;;;;;54.75;42.50;;;;;1.86;98.07;102902.34;5058600;28;45599;-62
2022/01/12 06:47:30;;;;;;;;;59.25;44.00;;;;;1.85;97.40;102903.16;5055583;28;46461;-62
2022/01/12 06:49:56;;;;;;;;;58.00;45.75;;;;;1.84;97.20;102906.59;5054450;28;45256;-60
2022/01/12 06:52:21;;;;;;;;;57.50;43.75;;;;;1.82;97.31;102907.38;5055981;28;45215;-62
2022/01/12 06:54:46;;;;;;;;;58.25;43.50;;;;;1.83;97.21;102916.94;5056283;28;45544;-62
2022/01/12 06:57:12;;;;;;;;;61.50;45.50;;;;;1.42;97.55;102845.50;5056500;28;45349;-65
2022/01/12 06:59:37;;;;;;;;;56.25;45.00;;;;;1.89;98.13;102911.94;5061076;28;45278;-61
2022/01/12 07:02:04;;;;;;;;;60.75;41.50;;;;;1.97;97.19;102917.38;5064569;28;45500;-63
2022/01/12 07:04:30;;;;;;;;;60.00;40.75;;;;;1.95;97.71;102914.75;5042736;28;45276;-62
2022/01/12 07:06:55;;;;;;;;;62.25;46.00;;;;;1.89;97.31;102915.41;5059060;28;46316;-62
2022/01/12 07:09:20;;;;;;;;;66.00;46.25;;;;;1.85;97.16;102915.28;5058605;28;45708;-61
2022/01/12 07:11:47;;;;;;;;;60.75;43.00;;;;;1.79;98.04;102910.75;5058079;28;45478;-61
2022/01/12 07:14:13;;;;;;;;;56.25;39.50;;;;;1.73;98.26;102908.84;5040572;28;45347;-62
2022/01/12 07:16:38;;;;;;;;;65.50;46.00;;;;;1.67;98.35;102900.84;5058824;28;46048;-61
2022/01/12 07:19:04;;;;;;;;;63.50;45.75;;;;;1.64;98.44;102890.38;5058693;28;45320;-62
2022/01/12 07:21:29;;;;;;;;;62.00;46.25;;;;;1.73;99.49;102897.56;5058854;28;45661;-61
2022/01/12 07:23:55;;;;;;;;;59.25;44.75;;;;;1.71;98.88;102894.94;5058413;28;45490;-62
2022/01/12 07:26:21;;;;;;;;;55.50;38.25;;;;;1.73;98.67;102892.38;5057930;28;45447;-63
2022/01/12 07:28:47;;;;;;;;;57.00;43.00;;;;;1.71;98.70;102896.63;5058396;28;45230;-61
2022/01/12 07:31:13;;;;;;;;;62.50;46.75;;;;;1.67;100.00;102892.16;5058401;28;45249;-63
2022/01/12 07:33:38;;;;;;;;;60.75;47.50;;;;;1.77;99.28;102907.22;5059100;28;45209;-62
2022/01/12 07:36:04;;;;;;;;;64.25;45.50;;;;;1.77;98.78;102912.41;5057898;28;46258;-60
2022/01/12 07:38:29;;;;;;;;;61.25;46.25;;;;;1.75;99.32;102914.97;5059561;28;45717;-61
2022/01/12 07:40:54;;;;;;;;;62.75;46.50;;;;;1.75;98.87;102922.75;5058658;28;45890;-61
2022/01/12 07:43:20;;;;;;;;;61.50;46.75;;;;;1.75;98.91;102930.53;5057677;28;45394;-62
2022/01/12 07:45:45;;;;;;;;;61.00;43.50;;;;;1.73;99.60;102924.41;5056447;28;48183;-61
2022/01/12 07:48:12;;;;;;;;;52.75;38.25;;;;;1.75;99.24;102934.81;5057889;28;45391;-64
2022/01/12 07:50:38;;;;;;;;;65.50;45.25;;;;;1.66;98.23;102948.38;5059586;28;45354;-62
2022/01/12 07:53:03;;;;;;;;;57.50;42.25;;;;;1.66;98.61;102957.84;5057759;28;45435;-62
2022/01/12 07:55:29;;;;;;;;;61.25;42.50;;;;;1.59;98.45;102957.66;5057316;28;45436;-61
2022/01/12 07:57:54;;;;;;;;;53.50;40.25;;;;;1.58;99.57;102962.75;5057192;28;45394;-63
2022/01/12 08:00:23;;;;;;;;;58.00;43.25;;;;;1.58;99.78;102978.31;5057510;28;45433;-62
2022/01/12 08:02:51;;;;;;;;;67.00;48.00;;;;;1.58;99.64;102961.06;5057517;28;45281;-62
2022/01/12 08:05:18;;;;;;;;;59.00;43.25;;;;;1.60;99.41;102962.00;5056228;28;47993;-61
2022/01/12 08:07:45;;;;;;;;;68.50;48.75;;;;;1.60;100.00;102964.59;5057349;28;45541;-60
2022/01/12 08:10:10;;;;;;;;;67.50;45.50;;;;;1.66;100.00;102970.84;5057411;28;45367;-61
2022/01/12 08:12:37;;;;;;;;;60.75;46.25;;;;;1.66;99.22;102981.22;5057443;28;45273;-64
2022/01/12 08:15:07;;;;;;;;;67.75;48.25;;;;;1.58;98.64;102992.19;5056977;28;46319;-62
2022/01/12 08:17:33;;;;;;;;;58.00;40.00;;;;;1.51;98.82;102992.81;5056112;28;45364;-62
2022/01/12 08:20:00;;;;;;;;;63.25;47.75;;;;;1.50;99.31;102990.13;5057267;28;45439;-61
2022/01/12 08:22:26;;;;;;;;;61.25;47.00;;;;;1.52;99.91;103002.34;5056899;28;45301;-61
2022/01/12 08:24:51;;;;;;;;;63.00;41.50;;;;;1.52;99.32;103015.31;5056486;28;46243;-64
2022/01/12 08:27:17;;;;;;;;;68.00;48.75;;;;;1.47;98.84;103011.69;5055422;28;45190;-62
2022/01/12 08:29:42;;;;;;;;;57.75;42.75;;;;;1.42;99.02;103011.50;5056882;28;45383;-66
2022/01/12 08:32:08;;;;;;;;;64.75;43.75;;;;;1.38;99.66;103013.94;5057412;28;45664;-61
2022/01/12 08:34:34;;;;;;;;;62.75;46.25;;;;;1.41;99.79;103022.69;5056587;28;46449;-61
2022/01/12 08:37:00;;;;;;;;;60.25;46.75;;;;;1.39;100.00;103013.09;5057956;28;46562;-63
2022/01/12 08:39:25;;;;;;;;;53.00;39.75;;;;;1.60;99.95;103029.47;5057422;28;45435;-63
2022/01/12 08:41:50;;;;;;;;;63.25;45.25;;;;;1.74;100.00;103032.56;5055321;28;45693;-63
2022/01/12 08:44:16;;;;;;;;;61.00;44.75;;;;;1.85;100.00;103038.13;5055454;28;45936;-63
2022/01/12 08:46:42;;;;;;;;;62.75;46.50;;;;;1.93;99.14;103042.69;5038757;28;45353;-63
2022/01/12 08:49:08;;;;;;;;;64.00;48.00;;;;;1.74;97.18;103010.91;5057060;28;45234;-62
2022/01/12 08:51:34;;;;;;;;;60.50;46.75;;;;;1.92;98.57;103033.16;5057691;28;45335;-64
2022/01/12 08:53:59;;;;;;;;;68.00;47.00;;;;;2.02;98.58;103040.44;5056910;28;46077;-62
2022/01/12 08:56:25;;;;;;;;;59.25;44.00;;;;;2.11;97.92;103032.97;5039690;28;45352;-64
2022/01/12 08:58:51;;;;;;;;;64.50;49.00;;;;;2.25;97.71;103038.63;5058898;28;45437;-62
2022/01/12 09:01:18;;;;;;;;;62.50;47.00;;;;;2.37;98.58;103042.47;5040063;28;45529;-62
2022/01/12 09:03:43;;;;;;;;;67.50;46.75;;;;;2.51;98.35;103049.03;5059787;28;46147;-62
2022/01/12 09:06:09;;;;;;;;;60.75;46.00;;;;;2.63;96.92;103051.16;5057998;28;45320;-61
2022/01/12 09:08:37;;;;;;;;;65.50;48.00;;;;;2.70;96.81;103055.72;5057049;28;45368;-62
2022/01/12 09:11:03;;;;;;;;;69.25;51.00;;;;;2.81;96.50;103065.56;5056791;28;45517;-63
2022/01/12 09:13:29;;;;;;;;;68.75;48.00;;;;;2.98;97.45;103059.19;5056479;28;45424;-63
2022/01/12 09:15:54;;;;;;;;;58.00;44.25;;;;;3.12;96.79;103064.84;5057202;28;45684;-62
2022/01/12 09:18:20;;;;;;;;;63.25;46.00;;;;;3.19;95.12;103065.91;5060825;28;45359;-61
2022/01/12 09:20:47;;;;;;;;;62.00;45.50;;;;;3.34;95.21;103079.41;5059010;28;45518;-62
2022/01/12 09:23:13;;;;;;;;;62.50;48.75;;;;;3.46;94.79;103085.81;5058733;28;46051;-63
2022/01/12 09:25:39;;;;;;;;;58.00;45.50;;;;;3.54;93.86;103097.31;5038517;28;45379;-63
2022/01/12 09:28:06;;;;;;;;;66.25;48.00;;;;;3.51;94.63;103085.09;5056472;28;45236;-64
2022/01/12 09:30:32;;;;;;;;;63.50;49.00;;;;;3.42;94.02;103068.34;5056494;28;45370;-62
2022/01/12 09:32:59;;;;;;;;;64.25;49.50;;;;;3.67;94.16;103110.69;5055776;28;45315;-62
2022/01/12 09:35:24;;;;;;;;;60.00;44.75;;;;;3.77;94.10;103116.22;5055585;28;45377;-62
2022/01/12 09:37:50;;;;;;;;;67.50;50.75;;;;;3.79;92.41;103124.06;5055704;28;45336;-62
2022/01/12 09:40:16;;;;;;;;;67.25;44.75;;;;;3.81;91.68;103122.38;5056785;28;45386;-61
2022/01/12 09:42:47;;;;;;;;;72.00;50.00;;;;;3.76;90.79;103124.88;5038680;28;47232;-61
2022/01/12 09:45:15;;;;;;;;;67.25;49.00;;;;;3.69;91.73;103130.72;5057049;28;45410;-62
2022/01/12 09:47:42;;;;;;;;;69.00;50.00;;;;;3.69;92.28;103133.31;5057673;28;45193;-62
2022/01/12 09:50:10;;;;;;;;;69.25;50.50;;;;;3.78;92.96;103135.31;5057219;28;45213;-62
2022/01/12 09:52:35;;;;;;;;;71.50;50.25;;;;;3.78;91.04;103127.50;5056083;28;45321;-63
2022/01/12 09:55:01;;;;;;;;;62.50;48.75;;;;;3.82;91.90;103131.97;5055692;28;45558;-62
2022/01/12 09:57:26;;;;;;;;;65.25;48.75;;;;;3.91;92.68;103134.84;5055444;28;45344;-63
2022/01/12 09:59:51;;;;;;;;;64.25;50.25;;;;;4.01;91.91;103141.19;5055986;28;45561;-60
2022/01/12 10:02:19;;;;;;;;;60.75;45.50;;;;;4.00;91.31;103138.53;5056423;28;45557;-61
2022/01/12 10:04:45;;;;;;;;;65.25;49.25;;;;;4.04;91.81;103138.69;5055677;28;45379;-62
2022/01/12 10:07:11;;;;;;;;;64.75;49.00;;;;;4.09;91.46;103136.19;5055817;28;45211;-62
2022/01/12 10:09:39;;;;;;;;;66.75;50.50;;;;;4.15;91.93;103132.88;5059595;28;45251;-62
2022/01/12 10:12:09;;;;;;;;;71.50;51.00;;;;;4.23;91.36;103133.97;5055356;28;47115;-63
2022/01/12 10:14:41;;;;;;;;;65.25;47.00;;;;;4.31;91.53;103136.81;5036957;28;45345;-61
2022/01/12 10:17:07;;;;;;;;;63.75;45.75;;;;;4.38;91.11;103126.56;5055307;28;45272;-63
2022/01/12 10:19:33;;;;;;;;;73.50;53.25;;;;;4.48;91.11;103126.81;5055585;28;45294;-62
2022/01/12 10:22:04;;;;;;;;;69.50;51.00;;;;;4.61;90.64;103128.03;5054719;28;45355;-64
2022/01/12 10:24:30;;;;;;;;;72.50;51.75;;;;;4.70;90.68;103132.59;5055331;28;45286;-62
2022/01/12 10:26:57;;;;;;;;;66.25;49.50;;;;;4.83;90.69;103129.47;5057961;28;45328;-61
2022/01/12 10:29:25;;;;;;;;;65.50;48.50;;;;;4.81;89.05;103111.16;5055706;28;45640;-63
2022/01/12 10:31:59;;;;;;;;;67.25;47.75;;;;;4.94;88.76;103129.72;5055423;28;46157;-62
2022/01/12 10:34:45;;;;;;;;;66.25;48.75;;;;;4.98;89.57;103131.56;5055772;28;45324;-62
2022/01/12 10:37:13;;;;;;;;;67.75;50.75;;;;;5.03;89.28;103124.72;5059369;28;45324;-62
2022/01/12 10:39:41;;;;;;;;;69.50;51.25;;;;;5.06;88.74;103127.41;5059396;28;45249;-63
2022/01/12 10:42:09;;;;;;;;;63.50;46.75;;;;;5.02;88.32;103127.31;5060492;28;47149;-63
2022/01/12 10:44:40;;;;;;;;;66.25;49.75;;;;;5.01;88.13;103128.16;5041341;28;45264;-63
2022/01/12 10:47:24;;;;;;;;;67.50;50.50;;;;;5.08;88.88;103122.22;5059080;28;45347;-62
2022/01/12 10:49:55;;;;;;;;;68.25;53.25;;;;;5.06;86.93;103126.53;5059620;28;45219;-62
2022/01/12 10:52:22;;;;;;;;;68.75;52.00;;;;;5.00;86.93;103124.66;5058945;28;45390;-59
2022/01/12 10:54:53;;;;;;;;;55.25;39.00;;;;;4.93;86.93;103122.72;5059632;28;45305;-62
2022/01/12 10:57:25;;;;;;;;;63.75;49.00;;;;;4.95;87.59;103123.66;5042480;28;45401;-61
2022/01/12 10:59:59;;;;;;;;;69.25;51.00;;;;;5.00;86.97;103127.25;5059017;28;45292;-60
2022/01/12 11:02:27;;;;;;;;;66.50;50.25;;;;;5.08;88.05;103125.72;5058401;28;46566;-63
2022/01/12 11:04:53;;;;;;;;;70.75;49.75;;;;;5.07;86.13;103123.09;5059978;28;45484;-60
2022/01/12 11:07:19;;;;;;;;;69.75;51.50;;;;;5.07;86.39;103134.38;5061089;28;45409;-62
2022/01/12 11:09:46;;;;;;;;;66.25;50.50;;;;;5.14;87.04;103137.13;5060336;28;45621;-61
2022/01/12 11:12:12;;;;;;;;;63.25;48.75;;;;;5.22;86.95;103138.19;5058068;28;47638;-62
2022/01/12 11:14:38;;;;;;;;;68.25;52.75;;;;;5.26;87.47;103140.94;5040902;28;45757;-63
2022/01/12 11:17:03;;;;;;;;;68.75;51.50;;;;;5.33;86.69;103141.97;5062420;28;45234;-62
2022/01/12 11:19:31;;;;;;;;;22.00;13.75;;;;;5.34;84.75;103146.34;5045036;28;45043;-62
2022/01/12 11:22:13;;;;;;;;;67.75;50.50;;;;;5.29;86.72;103142.72;5061399;28;45390;-61
2022/01/12 11:24:38;;;;;;;;;64.50;51.50;;;;;5.24;86.19;103137.41;5059671;28;45422;-62
2022/01/12 11:27:05;;;;;;;;;66.25;48.00;;;;;5.27;85.81;103133.97;5063191;28;45315;-63
2022/01/12 11:29:34;;;;;;;;;67.00;51.75;;;;;5.34;86.62;103130.69;5064194;28;45380;-61
2022/01/12 11:32:13;;;;;;;;;61.00;42.00;;;;;5.40;86.60;103128.22;5062201;28;45395;-67
2022/01/12 11:34:39;;;;;;;;;67.75;51.50;;;;;5.43;86.61;103122.16;5063596;28;45247;-63
2022/01/12 11:37:16;;;;;;;;;67.25;52.25;;;;;5.48;85.83;103130.09;5064796;28;44701;-64
2022/01/12 11:39:42;;;;;;;;;69.50;51.00;;;;;5.46;85.08;103131.81;5060289;28;45466;-63
2022/01/12 11:42:08;;;;;;;;;69.75;52.25;;;;;5.41;85.48;103124.75;5059209;28;46196;-61
2022/01/12 11:44:36;;;;;;;;;65.50;50.00;;;;;5.40;84.76;103122.09;5060809;28;45277;-63
2022/01/12 11:47:03;;;;;;;;;66.50;51.00;;;;;5.40;85.08;103119.47;5058363;28;45365;-62
2022/01/12 11:49:38;;;;;;;;;68.50;52.50;;;;;5.50;84.88;103115.34;5058299;28;45173;-63
2022/01/12 11:52:18;;;;;;;;;67.75;49.25;;;;;5.50;85.47;103115.34;5057397;28;45274;-63
2022/01/12 11:54:47;;;;;;;;;71.00;53.75;;;;;5.43;85.58;103101.28;5058278;28;45442;-62
2022/01/12 11:57:18;;;;;;;;;68.75;52.00;;;;;5.59;85.69;103101.59;5058486;28;45408;-64
2022/01/12 12:00:00;;;;;;;;;70.00;50.50;;;;;5.64;85.62;103106.09;5057878;28;45476;-63
2022/01/12 12:02:40;;;;;;;;;62.25;48.50;;;;;5.71;84.84;103107.06;5039384;28;47239;-63
2022/01/12 12:05:10;;;;;;;;;69.75;53.00;;;;;5.76;85.54;103107.19;5057085;28;45507;-63
2022/01/12 12:07:53;;;;;;;;;64.25;49.50;;;;;5.84;84.71;103108.22;5057161;28;45267;-61
2022/01/12 12:10:24;;;;;;;;;68.00;50.00;;;;;5.84;83.28;103106.50;5057494;28;45215;-61
2022/01/12 12:12:51;;;;;;;;;67.50;51.50;;;;;5.90;84.11;103108.34;5056982;28;46671;-61
2022/01/12 12:15:17;;;;;;;;;60.50;47.50;;;;;5.80;84.09;103096.81;5039357;28;45383;-62
2022/01/12 12:17:43;;;;;;;;;71.75;54.00;;;;;5.86;84.78;103103.91;5060649;28;45233;-62
2022/01/12 12:20:15;;;;;;;;;70.25;54.00;;;;;5.93;84.01;103097.09;5057599;28;45186;-63
2022/01/12 12:22:43;;;;;;;;;66.25;52.50;;;;;5.94;84.45;103094.50;5057043;28;46169;-66
2022/01/12 12:25:11;;;;;;;;;58.75;45.00;;;;;5.93;83.86;103081.41;5056996;28;45193;-64
2022/01/12 12:27:40;;;;;;;;;66.75;49.50;;;;;6.00;84.55;103093.75;5057575;28;45429;-62
2022/01/12 12:30:11;;;;;;;;;72.75;54.75;;;;;6.09;84.61;103093.06;5055694;28;45379;-63
2022/01/12 12:32:38;;;;;;;;;70.00;54.25;;;;;6.18;83.79;103093.22;5056383;28;46027;-62
2022/01/12 12:35:10;;;;;;;;;67.50;51.75;;;;;6.02;83.51;103054.59;5038628;28;45324;-63
2022/01/12 12:37:44;;;;;;;;;73.00;54.00;;;;;6.18;83.25;103067.09;5056615;28;45243;-61
2022/01/12 12:40:17;;;;;;;;;70.75;53.50;;;;;6.31;84.35;103076.06;5057158;28;45238;-63
2022/01/12 12:42:44;;;;;;;;;63.75;48.75;;;;;6.36;82.89;103076.13;5056832;28;45365;-63
2022/01/12 12:45:10;;;;;;;;;70.50;54.00;;;;;6.44;84.23;103064.09;5057543;28;45249;-62